createdAt,value
2019-01-25T00:00:00.275Z,100.00
2019-01-25T00:02:30.619Z,100.00
2019-01-25T00:05:00.951Z,100.00
2019-01-25T00:07:30.988Z,100.00
2019-01-25T00:10:01.102Z,100.00
2019-01-25T00:12:31.345Z,100.00
2019-01-25T00:15:01.499Z,100.00
2019-01-25T00:17:31.677Z,100.00
2019-01-25T00:20:02.025Z,100.00
2019-01-25T00:22:31.999Z,100.00
2019-01-25T00:25:01.993Z,100.00
2019-01-25T00:27:32.145Z,100.00
2019-01-25T00:30:02.130Z,100.00
2019-01-25T00:32:32.114Z,100.00
2019-01-25T00:35:02.283Z,97.96
2019-01-25T00:37:32.206Z,97.17
2019-01-25T00:40:06.406Z,95.33
2019-01-25T00:42:34.194Z,95.17
2019-01-25T00:45:05.190Z,95.12
2019-01-25T00:47:35.581Z,94.72
2019-01-25T00:50:11.117Z,93.29
2019-01-25T00:52:41.684Z,93.87
2019-01-25T00:55:12.228Z,93.13
2019-01-25T00:57:42.552Z,94.16
2019-01-25T01:00:20.090Z,93.80
2019-01-25T01:02:50.931Z,94.51
2019-01-25T01:05:22.148Z,93.08
2019-01-25T01:07:52.940Z,92.68
2019-01-25T01:10:24.174Z,91.54
2019-01-25T01:12:54.442Z,91.48
2019-01-25T01:15:24.633Z,92.25
2019-01-25T01:17:55.316Z,92.42
2019-01-25T01:20:25.634Z,92.98
2019-01-25T01:22:55.793Z,93.22
2019-01-25T01:25:25.966Z,93.97
2019-01-25T01:27:55.887Z,94.15
2019-01-25T01:30:26.175Z,93.89
2019-01-25T01:32:56.915Z,94.08
2019-01-25T01:35:27.252Z,93.84
2019-01-25T01:37:57.662Z,93.31
2019-01-25T01:40:27.950Z,94.06
2019-01-25T01:42:58.115Z,94.58
2019-01-25T01:45:28.115Z,95.26
2019-01-25T01:47:58.289Z,95.74
2019-01-25T01:50:28.307Z,95.24
2019-01-25T01:52:58.434Z,94.93
2019-01-25T01:55:28.334Z,95.35
2019-01-25T01:57:58.985Z,95.24
2019-01-25T02:00:30.227Z,95.75
2019-01-25T02:03:00.349Z,95.81
2019-01-25T02:05:30.450Z,95.58
2019-01-25T02:08:00.681Z,95.37
2019-01-25T02:10:30.726Z,94.54
2019-01-25T02:13:00.727Z,94.88
2019-01-25T02:15:30.841Z,94.10
2019-01-25T02:18:00.939Z,94.21
2019-01-25T02:20:32.817Z,93.63
2019-01-25T02:23:03.405Z,93.61
2019-01-25T02:25:33.540Z,94.59
2019-01-25T02:28:03.449Z,94.63
2019-01-25T02:30:33.887Z,94.76
2019-01-25T02:33:04.754Z,94.49
2019-01-25T02:35:35.057Z,94.37
2019-01-25T02:49:15.886Z,93.31
2019-01-25T02:51:46.131Z,93.78
2019-01-25T03:00:40.155Z,92.27
2019-01-25T03:03:10.452Z,93.01
2019-01-25T03:05:40.384Z,93.38
2019-01-25T03:08:10.703Z,92.96
2019-01-25T03:10:47.036Z,93.25
2019-01-25T03:13:12.982Z,93.28
2019-01-25T03:15:43.353Z,93.38
2019-01-25T03:18:13.557Z,93.70
2019-01-25T03:20:43.804Z,93.68
2019-01-25T03:23:14.451Z,94.10
2019-01-25T03:25:44.381Z,93.43
2019-01-25T03:28:14.704Z,93.45
2019-01-25T03:30:44.726Z,94.76
2019-01-25T03:33:14.969Z,94.54
2019-01-25T03:35:45.973Z,94.41
2019-01-25T03:38:15.942Z,94.38
2019-01-25T03:40:46.070Z,93.52
2019-01-25T03:43:16.175Z,92.50
2019-01-25T03:45:46.516Z,91.28
2019-01-25T03:48:16.612Z,90.85
2019-01-25T03:50:46.820Z,90.82
2019-01-25T03:53:16.940Z,90.43
2019-01-25T03:55:47.151Z,90.75
2019-01-25T03:58:17.690Z,90.14
2019-01-25T04:00:48.527Z,90.95
2019-01-25T04:03:18.495Z,89.51
2019-01-25T04:05:48.718Z,90.31
2019-01-25T04:08:19.451Z,89.22
2019-01-25T04:10:49.869Z,89.54
2019-01-25T04:13:21.294Z,88.64
2019-01-25T04:15:51.521Z,89.27
2019-01-25T04:18:21.398Z,89.22
2019-01-25T04:20:51.278Z,89.74
2019-01-25T04:23:21.158Z,89.02
2019-01-25T04:25:51.029Z,87.92
2019-01-25T04:28:21.099Z,88.32
2019-01-25T04:30:51.238Z,89.56
2019-01-25T04:33:21.234Z,89.25
2019-01-25T04:35:51.674Z,89.88
2019-01-25T04:38:21.544Z,91.03
2019-01-25T04:40:52.006Z,91.13
2019-01-25T04:43:22.206Z,91.79
2019-01-25T04:45:53.089Z,92.37
2019-01-25T04:48:23.612Z,93.43
2019-01-25T04:50:54.286Z,93.71
2019-01-25T04:53:24.293Z,93.26
2019-01-25T04:55:54.161Z,94.12
2019-01-25T04:58:24.285Z,95.05
2019-01-25T05:00:54.337Z,95.71
2019-01-25T05:03:24.589Z,96.51
2019-01-25T05:05:54.623Z,97.10
2019-01-25T05:08:25.427Z,97.58
2019-01-25T05:10:55.296Z,98.25
2019-01-25T05:13:25.825Z,97.73
2019-01-25T05:15:55.736Z,98.44
2019-01-25T05:18:25.744Z,99.10
2019-01-25T05:20:56.651Z,99.31
2019-01-25T05:23:26.794Z,99.07
2019-01-25T05:29:32.657Z,99.37
2019-01-25T05:32:06.669Z,98.33
2019-01-25T05:34:37.161Z,97.67
2019-01-25T05:37:10.843Z,97.47
2019-01-25T05:39:40.786Z,97.11
2019-01-25T05:46:02.173Z,96.96
2019-01-25T05:48:32.600Z,97.18
2019-01-25T05:51:04.397Z,98.90
2019-01-25T05:53:35.309Z,97.01
2019-01-25T05:56:06.285Z,97.05
2019-01-25T05:58:36.280Z,97.38
2019-01-25T06:01:06.591Z,96.96
2019-01-25T06:03:36.606Z,96.52
2019-01-25T06:06:10.125Z,96.76
2019-01-25T06:08:44.070Z,96.29
2019-01-25T06:11:13.219Z,96.99
2019-01-25T06:13:47.051Z,96.64
2019-01-25T06:16:17.654Z,96.01
2019-01-25T06:18:48.237Z,95.58
2019-01-25T06:21:18.179Z,95.30
2019-01-25T06:23:49.284Z,94.81
2019-01-25T06:26:19.276Z,93.57
2019-01-25T06:28:53.096Z,93.40
2019-01-25T06:31:25.580Z,94.50
2019-01-25T06:33:55.542Z,94.81
2019-01-25T06:36:25.423Z,94.58
2019-01-25T06:38:55.346Z,94.47
2019-01-25T06:41:25.498Z,94.95
2019-01-25T06:43:55.616Z,94.29
2019-01-25T06:46:25.731Z,94.55
2019-01-25T06:48:55.875Z,94.67
2019-01-25T06:51:25.748Z,93.88
2019-01-25T06:53:55.654Z,93.68
2019-01-25T06:56:25.831Z,93.13
2019-01-25T06:59:12.483Z,93.33
2019-01-25T07:01:49.584Z,92.99
2019-01-25T07:04:19.761Z,93.40
2019-01-25T07:06:49.635Z,94.07
2019-01-25T07:09:19.939Z,94.67
2019-01-25T07:11:51.744Z,94.58
2019-01-25T07:14:21.880Z,94.73
2019-01-25T07:16:52.607Z,95.74
2019-01-25T07:19:23.146Z,96.22
2019-01-25T07:21:53.241Z,96.89
2019-01-25T07:24:23.363Z,97.42
2019-01-25T07:26:53.788Z,97.80
2019-01-25T07:29:23.696Z,97.81
2019-01-25T07:31:54.183Z,97.39
2019-01-25T07:34:24.106Z,97.78
2019-01-25T07:36:54.076Z,97.73
2019-01-25T07:39:27.765Z,97.65
2019-01-25T07:41:59.386Z,96.82
2019-01-25T07:44:29.767Z,96.10
2019-01-25T07:47:01.903Z,95.96
2019-01-25T07:49:32.047Z,96.64
2019-01-25T07:52:02.059Z,96.26
2019-01-25T07:54:31.929Z,96.22
2019-01-25T07:57:01.815Z,96.80
2019-01-25T07:59:32.114Z,96.94
2019-01-25T08:02:02.254Z,96.73
2019-01-25T08:04:32.166Z,95.29
2019-01-25T08:07:02.238Z,95.59
2019-01-25T08:09:32.247Z,95.21
2019-01-25T08:12:07.392Z,94.54
2019-01-25T08:14:34.074Z,94.55
2019-01-25T08:17:04.440Z,95.56
2019-01-25T08:19:34.826Z,95.82
2019-01-25T08:22:04.951Z,94.44
2019-01-25T08:24:34.878Z,94.36
2019-01-25T08:27:04.861Z,93.87
2019-01-25T08:29:34.786Z,94.42
2019-01-25T08:32:04.707Z,93.90
2019-01-25T08:34:34.599Z,92.82
2019-01-25T08:37:04.617Z,93.09
2019-01-25T08:39:34.595Z,93.15
2019-01-25T08:42:05.062Z,92.59
2019-01-25T08:44:34.995Z,92.39
2019-01-25T08:47:05.790Z,92.05
2019-01-25T08:49:35.678Z,90.91
2019-01-25T08:55:32.316Z,88.00
2019-01-25T08:58:02.638Z,87.49
2019-01-25T09:00:32.710Z,87.42
2019-01-25T09:03:02.838Z,87.02
2019-01-25T09:05:33.295Z,87.35
2019-01-25T09:08:03.665Z,86.47
2019-01-25T09:10:33.618Z,86.70
2019-01-25T09:13:03.760Z,85.62
2019-01-25T09:15:33.968Z,83.73
2019-01-25T09:18:04.012Z,81.44
2019-01-25T09:20:34.207Z,78.13
2019-01-25T09:23:04.129Z,74.68
2019-01-25T09:29:25.863Z,76.92
2019-01-25T09:31:55.879Z,76.44
2019-01-25T09:34:25.764Z,77.57
2019-01-25T09:36:55.688Z,76.93
2019-01-25T09:39:25.733Z,76.70
2019-01-25T09:41:55.614Z,78.09
2019-01-25T09:44:25.514Z,78.48
2019-01-25T09:46:55.999Z,76.50
2019-01-25T09:49:25.958Z,76.16
2019-01-25T09:51:55.889Z,73.94
2019-01-25T09:54:26.033Z,74.27
2019-01-25T09:56:55.938Z,73.61
2019-01-25T09:59:25.875Z,72.04
2019-01-25T10:01:55.736Z,70.86
2019-01-25T10:04:25.665Z,73.18
2019-01-25T10:06:55.530Z,72.53
2019-01-25T10:09:25.425Z,70.62
2019-01-25T10:11:55.776Z,68.14
2019-01-25T10:14:25.744Z,68.67
2019-01-25T10:16:55.733Z,70.99
2019-01-25T10:19:26.169Z,73.04
2019-01-25T10:21:56.049Z,72.14
2019-01-25T10:24:26.175Z,72.22
2019-01-25T10:26:56.065Z,73.41
2019-01-25T10:29:26.006Z,72.15
2019-01-25T10:31:55.964Z,71.67
2019-01-25T10:34:25.894Z,73.67
2019-01-25T10:36:56.299Z,73.92
2019-01-25T10:39:26.189Z,73.18
2019-01-25T10:41:56.302Z,69.32
2019-01-25T10:44:26.503Z,68.85
2019-01-25T10:46:56.514Z,67.98
2019-01-25T10:49:26.605Z,69.05
2019-01-25T10:51:56.539Z,71.27
2019-01-25T10:54:26.450Z,69.31
2019-01-25T10:56:56.320Z,68.15
2019-01-25T10:59:26.359Z,70.21
2019-01-25T11:01:56.571Z,66.73
2019-01-25T11:04:26.782Z,64.39
2019-01-25T11:06:56.834Z,65.05
2019-01-25T11:09:26.805Z,67.69
2019-01-25T11:11:57.021Z,69.66
2019-01-25T11:14:27.498Z,68.65
2019-01-25T11:16:57.486Z,68.29
2019-01-25T11:19:27.595Z,66.03
2019-01-25T11:21:57.780Z,66.97
2019-01-25T11:24:27.612Z,65.81
2019-01-25T11:27:00.367Z,67.71
2019-01-25T11:29:29.520Z,67.24
2019-01-25T11:31:59.392Z,71.24
2019-01-25T11:34:33.103Z,71.72
2019-01-25T11:37:00.914Z,71.05
2019-01-25T11:43:21.754Z,69.33
2019-01-25T11:53:11.149Z,69.64
2019-01-25T11:55:41.504Z,69.92
2019-01-25T11:58:11.529Z,70.95
2019-01-25T12:00:45.678Z,72.17
2019-01-25T12:03:15.692Z,73.52
2019-01-25T12:05:45.921Z,74.00
2019-01-25T12:08:15.954Z,74.45
2019-01-25T12:10:45.822Z,74.54
2019-01-25T12:13:16.509Z,74.25
2019-01-25T12:15:46.689Z,72.92
2019-01-25T12:18:16.604Z,73.41
2019-01-25T12:20:46.566Z,75.67
2019-01-25T12:23:16.514Z,75.97
2019-01-25T12:25:46.521Z,71.14
2019-01-25T12:28:16.538Z,69.51
2019-01-25T12:30:46.628Z,69.80
2019-01-25T12:33:16.571Z,71.63
2019-01-25T12:35:46.610Z,72.50
2019-01-25T12:38:16.473Z,77.29
2019-01-25T12:40:46.392Z,72.73
2019-01-25T12:43:23.729Z,69.45
2019-01-25T12:45:50.238Z,67.48
2019-01-25T12:48:20.870Z,69.26
2019-01-25T12:51:02.670Z,70.76
2019-01-25T12:53:34.028Z,67.43
2019-01-25T12:56:04.540Z,70.04
2019-01-25T12:58:34.456Z,67.50
2019-01-25T13:01:06.066Z,67.10
2019-01-25T13:03:36.387Z,65.49
2019-01-25T13:06:07.293Z,66.52
2019-01-25T13:08:37.220Z,63.78
2019-01-25T13:11:07.573Z,65.06
2019-01-25T13:13:37.447Z,71.31
2019-01-25T13:16:07.392Z,70.67
2019-01-25T13:18:37.264Z,73.85
2019-01-25T13:21:07.286Z,77.06
2019-01-25T13:23:37.166Z,75.00
2019-01-25T13:26:07.531Z,73.51
2019-01-25T13:28:41.625Z,75.36
2019-01-25T13:31:09.432Z,77.95
2019-01-25T13:33:39.575Z,78.81
2019-01-25T13:36:13.646Z,78.10
2019-01-25T13:38:44.097Z,78.35
2019-01-25T13:41:14.069Z,77.50
2019-01-25T13:43:44.030Z,77.06
2019-01-25T13:46:14.241Z,76.72
2019-01-25T13:48:44.700Z,76.09
2019-01-25T13:51:14.588Z,76.87
2019-01-25T13:53:44.461Z,80.18
2019-01-25T13:56:14.345Z,79.18
2019-01-25T13:58:44.497Z,77.39
2019-01-25T14:01:14.654Z,77.72
2019-01-25T14:03:44.530Z,77.68
2019-01-25T14:06:14.594Z,77.12
2019-01-25T14:08:45.438Z,76.34
2019-01-25T14:11:15.315Z,77.97
2019-01-25T14:13:46.915Z,76.76
2019-01-25T14:16:17.050Z,76.91
2019-01-25T14:18:47.233Z,78.09
2019-01-25T14:21:17.403Z,78.76
2019-01-25T14:23:47.302Z,80.23
2019-01-25T14:26:17.224Z,80.15
2019-01-25T14:28:47.339Z,79.06
2019-01-25T14:31:17.473Z,77.23
2019-01-25T14:33:47.423Z,76.99
2019-01-25T14:36:17.947Z,77.27
2019-01-25T14:38:48.099Z,77.38
2019-01-25T14:41:18.489Z,77.96
2019-01-25T14:43:54.435Z,80.12
2019-01-25T14:46:20.873Z,79.64
2019-01-25T14:48:50.751Z,80.46
2019-01-25T14:51:20.655Z,79.39
2019-01-25T14:53:51.170Z,78.30
2019-01-25T14:56:21.047Z,77.38
2019-01-25T14:58:51.430Z,77.96
2019-01-25T15:01:21.651Z,78.18
2019-01-25T15:03:51.601Z,77.72
2019-01-25T15:17:43.981Z,78.52
2019-01-25T15:20:20.321Z,81.62
2019-01-25T15:29:25.870Z,83.29
2019-01-25T15:31:55.745Z,83.56
2019-01-25T15:34:25.961Z,84.76
2019-01-25T15:36:56.019Z,84.64
2019-01-25T15:39:26.391Z,83.69
2019-01-25T15:41:56.445Z,85.98
2019-01-25T15:44:26.917Z,87.32
2019-01-25T15:46:57.129Z,87.91
2019-01-25T15:49:27.098Z,87.53
2019-01-25T15:51:57.215Z,88.39
2019-01-25T15:54:27.432Z,89.08
2019-01-25T15:56:57.355Z,89.33
2019-01-25T15:59:27.247Z,88.27
2019-01-25T16:01:57.492Z,89.23
2019-01-25T16:04:34.592Z,89.96
2019-01-25T16:06:59.310Z,91.08
2019-01-25T16:09:29.574Z,91.68
2019-01-25T16:12:00.605Z,91.57
2019-01-25T16:14:31.455Z,91.83
2019-01-25T16:17:02.526Z,92.41
2019-01-25T16:19:33.279Z,92.28
2019-01-25T16:22:03.217Z,92.50
2019-01-25T16:24:33.271Z,91.97
2019-01-25T16:27:04.251Z,92.01
2019-01-25T16:29:34.434Z,93.07
2019-01-25T16:32:04.330Z,93.05
2019-01-25T16:34:34.485Z,92.77
2019-01-25T16:37:05.051Z,93.10
2019-01-25T16:39:35.010Z,92.65
2019-01-25T16:42:04.960Z,93.46
2019-01-25T16:44:36.288Z,93.37
2019-01-25T16:47:06.393Z,93.34
2019-01-25T16:49:36.553Z,93.96
2019-01-25T16:52:06.629Z,92.57
2019-01-25T16:54:36.878Z,93.45
2019-01-25T16:57:06.945Z,93.81
2019-01-25T16:59:36.829Z,93.28
2019-01-25T17:02:06.877Z,94.12
2019-01-25T17:04:36.831Z,94.24
2019-01-25T17:07:10.840Z,93.94
2019-01-25T17:09:41.522Z,94.49
2019-01-25T17:12:11.587Z,93.69
2019-01-25T17:14:41.997Z,93.00
2019-01-25T17:17:11.892Z,93.19
2019-01-25T17:19:41.803Z,92.71
2019-01-25T17:22:12.100Z,93.57
2019-01-25T17:24:42.319Z,93.48
2019-01-25T17:27:12.752Z,93.64
2019-01-25T17:29:43.131Z,92.97
2019-01-25T17:32:13.137Z,92.46
2019-01-25T17:34:43.033Z,92.85
2019-01-25T17:37:13.192Z,92.35
2019-01-25T17:39:43.121Z,92.87
2019-01-25T17:42:13.716Z,91.68
2019-01-25T17:44:43.611Z,91.65
2019-01-25T17:47:13.761Z,92.11
2019-01-25T17:49:44.189Z,93.24
2019-01-25T17:52:33.638Z,92.42
2019-01-25T17:55:03.996Z,92.88
2019-01-25T17:57:34.279Z,91.64
2019-01-25T18:00:12.363Z,91.66
2019-01-25T18:02:42.347Z,91.91
2019-01-25T18:05:12.679Z,91.24
2019-01-25T18:07:44.209Z,91.01
2019-01-25T18:10:16.090Z,90.41
2019-01-25T18:12:46.086Z,89.93
2019-01-25T18:15:16.451Z,90.52
2019-01-25T18:17:46.693Z,89.85
2019-01-25T18:20:17.504Z,89.13
2019-01-25T18:22:47.819Z,89.47
2019-01-25T18:25:23.223Z,88.24
2019-01-25T18:27:58.639Z,88.08
2019-01-25T18:31:18.526Z,87.57
2019-01-25T18:33:49.073Z,87.21
2019-01-25T18:36:19.099Z,86.86
2019-01-25T18:42:39.879Z,85.96
2019-01-25T18:45:10.044Z,85.62
2019-01-25T18:47:40.129Z,86.30
2019-01-25T18:50:12.683Z,85.97
2019-01-25T18:52:42.634Z,85.71
2019-01-25T18:55:16.449Z,85.63
2019-01-25T18:57:47.167Z,86.14
2019-01-25T19:00:19.682Z,86.88
2019-01-25T19:02:49.865Z,86.24
2019-01-25T19:05:20.480Z,86.85
2019-01-25T19:07:50.828Z,86.83
2019-01-25T19:10:23.764Z,87.16
2019-01-25T19:12:53.673Z,87.37
2019-01-25T19:15:27.394Z,87.90
2019-01-25T19:17:57.778Z,87.65
2019-01-25T19:20:28.112Z,87.95
2019-01-25T19:22:58.891Z,87.31
2019-01-25T19:25:29.359Z,87.03
2019-01-25T19:27:59.241Z,86.92
2019-01-25T19:30:33.719Z,87.67
2019-01-25T19:33:03.964Z,87.52
2019-01-25T19:35:34.011Z,87.00
2019-01-25T19:38:04.183Z,87.78
2019-01-25T19:40:34.328Z,87.46
2019-01-25T19:43:04.489Z,87.94
2019-01-25T19:45:34.680Z,87.34
2019-01-25T19:48:05.574Z,87.54
2019-01-25T19:50:35.692Z,87.28
2019-01-25T19:53:07.006Z,86.82
2019-01-25T19:55:37.193Z,87.28
2019-01-25T19:58:09.781Z,86.96
2019-01-25T20:00:40.996Z,85.83
2019-01-25T20:03:11.069Z,86.54
2019-01-25T20:05:42.170Z,86.44
2019-01-25T20:08:12.231Z,87.42
2019-01-25T20:10:42.315Z,87.01
2019-01-25T20:13:13.231Z,86.60
2019-01-25T20:15:43.223Z,85.25
2019-01-25T20:18:13.523Z,84.37
2019-01-25T20:20:43.718Z,84.20
2019-01-25T20:23:13.723Z,85.25
2019-01-25T20:25:43.985Z,85.44
2019-01-25T20:28:14.042Z,84.88
2019-01-25T20:30:49.601Z,84.28
2019-01-25T20:33:16.290Z,84.15
2019-01-25T20:35:46.914Z,84.16
2019-01-25T20:38:16.877Z,84.41
2019-01-25T20:40:46.932Z,84.20
2019-01-25T20:43:17.193Z,84.23
2019-01-25T20:45:47.262Z,84.08
2019-01-25T20:48:17.470Z,83.89
2019-01-25T20:50:47.632Z,84.02
2019-01-25T20:53:17.909Z,84.57
2019-01-25T20:55:48.058Z,84.92
2019-01-25T20:58:18.282Z,84.88
2019-01-25T21:00:48.771Z,85.39
2019-01-25T21:03:19.015Z,85.88
2019-01-25T21:05:49.055Z,85.95
2019-01-25T21:08:19.302Z,85.79
2019-01-25T21:10:49.492Z,85.16
2019-01-25T21:13:20.048Z,85.76
2019-01-25T21:15:50.071Z,85.08
2019-01-25T21:18:20.171Z,83.96
2019-01-25T21:20:50.271Z,83.86
2019-01-25T21:23:20.211Z,84.74
2019-01-25T21:25:50.185Z,83.55
2019-01-25T21:28:20.236Z,83.58
2019-01-25T21:30:50.465Z,84.50
2019-01-25T21:33:20.867Z,83.59
2019-01-25T21:35:50.790Z,83.58
2019-01-25T21:38:20.990Z,83.20
2019-01-25T21:40:50.970Z,83.08
2019-01-25T21:43:20.965Z,83.08
2019-01-25T21:45:51.156Z,83.28
2019-01-25T21:48:21.229Z,83.00
2019-01-25T21:50:51.150Z,83.13
2019-01-25T21:53:21.393Z,83.16
2019-01-25T21:55:51.405Z,82.55
2019-01-25T21:58:22.027Z,83.58
2019-01-25T22:00:52.669Z,81.73
2019-01-25T22:03:23.284Z,82.15
2019-01-25T22:05:54.122Z,82.00
2019-01-25T22:08:25.061Z,81.76
2019-01-25T22:10:55.491Z,81.21
2019-01-25T22:13:26.310Z,81.50
2019-01-25T22:15:56.243Z,81.37
2019-01-25T22:18:26.162Z,81.34
2019-01-25T22:20:56.088Z,82.23
2019-01-25T22:23:26.634Z,81.08
2019-01-25T22:25:56.840Z,81.07
2019-01-25T22:28:27.041Z,81.58
2019-01-25T22:30:56.949Z,81.31
2019-01-25T22:33:27.343Z,81.45
2019-01-25T22:35:58.009Z,81.99
2019-01-25T22:38:27.905Z,82.10
2019-01-25T22:40:57.830Z,81.30
2019-01-25T22:43:43.032Z,80.88
2019-01-25T22:46:08.513Z,82.41
2019-01-25T22:48:39.181Z,81.23
2019-01-25T22:51:09.424Z,81.24
2019-01-25T22:53:39.674Z,80.02
2019-01-25T22:56:09.598Z,81.27
2019-01-25T22:58:39.721Z,80.72
2019-01-25T23:01:26.030Z,80.84
2019-01-25T23:05:05.278Z,80.42
2019-01-25T23:07:37.112Z,80.18
2019-01-25T23:10:17.628Z,80.26
2019-01-25T23:12:47.537Z,79.78
2019-01-25T23:15:18.750Z,80.78
2019-01-25T23:17:49.565Z,79.34
2019-01-25T23:20:19.603Z,79.13
2019-01-25T23:22:49.760Z,79.29
2019-01-25T23:25:19.854Z,79.99
2019-01-25T23:27:50.138Z,80.84
2019-01-25T23:30:20.518Z,81.37
2019-01-25T23:32:50.772Z,82.28
2019-01-25T23:35:21.090Z,83.90
2019-01-25T23:37:51.095Z,82.83
2019-01-25T23:40:21.186Z,83.72
2019-01-25T23:42:51.565Z,83.89
2019-01-25T23:45:21.811Z,83.29
2019-01-25T23:47:51.750Z,84.07
2019-01-25T23:50:21.702Z,85.47
2019-01-25T23:52:51.896Z,85.97
2019-01-25T23:55:21.870Z,87.76
2019-01-25T23:57:51.821Z,87.70
